sensor_id;sensor_type;location;lat;lon;timestamp;pressure;altitude;pressure_sealevel;temperature;humidity
50684;BME280;36654;45.042;38.994;2023-07-29T00:02:08;100727.69;;;21.33;61.48
50684;BME280;36654;45.042;38.994;2023-07-29T00:04:34;100745.53;;;21.38;61.60
50684;BME280;36654;45.042;38.994;2023-07-29T00:07:00;100703.13;;;21.16;61.54
50684;BME280;36654;45.042;38.994;2023-07-29T00:09:25;100718.88;;;21.28;61.85
50684;BME280;36654;45.042;38.994;2023-07-29T00:11:51;100747.38;;;21.37;61.81
50684;BME280;36654;45.042;38.994;2023-07-29T00:14:16;100743.88;;;21.33;61.95
50684;BME280;36654;45.042;38.994;2023-07-29T00:16:42;100743.00;;;21.33;62.27
50684;BME280;36654;45.042;38.994;2023-07-29T00:19:08;100738.69;;;21.27;62.02
50684;BME280;36654;45.042;38.994;2023-07-29T00:21:33;100738.47;;;21.33;62.11
50684;BME280;36654;45.042;38.994;2023-07-29T00:23:59;100742.88;;;21.36;62.00
50684;BME280;36654;45.042;38.994;2023-07-29T00:26:27;100747.41;;;21.36;62.47
50684;BME280;36654;45.042;38.994;2023-07-29T00:28:55;100741.13;;;21.35;62.24
50684;BME280;36654;45.042;38.994;2023-07-29T00:31:21;100742.00;;;21.36;62.54
50684;BME280;36654;45.042;38.994;2023-07-29T00:33:46;100722.38;;;21.32;62.44
50684;BME280;36654;45.042;38.994;2023-07-29T00:36:12;100676.66;;;21.01;62.51
50684;BME280;36654;45.042;38.994;2023-07-29T00:38:37;100723.75;;;21.17;62.61
50684;BME280;36654;45.042;38.994;2023-07-29T00:41:03;100717.53;;;21.15;62.78
50684;BME280;36654;45.042;38.994;2023-07-29T00:43:29;100719.59;;;21.07;63.02
50684;BME280;36654;45.042;38.994;2023-07-29T00:45:55;100708.31;;;20.94;62.99
50684;BME280;36654;45.042;38.994;2023-07-29T00:48:23;100732.53;;;20.96;63.37
50684;BME280;36654;45.042;38.994;2023-07-29T00:50:49;100731.75;;;20.92;63.48
50684;BME280;36654;45.042;38.994;2023-07-29T00:53:15;100725.56;;;20.88;63.36
50684;BME280;36654;45.042;38.994;2023-07-29T00:55:41;100727.28;;;20.91;63.67
50684;BME280;36654;45.042;38.994;2023-07-29T00:58:07;100698.25;;;20.73;63.51
50684;BME280;36654;45.042;38.994;2023-07-29T01:00:33;100743.41;;;20.93;63.78
50684;BME280;36654;45.042;38.994;2023-07-29T01:02:59;100743.41;;;20.93;63.73
50684;BME280;36654;45.042;38.994;2023-07-29T01:05:30;100746.09;;;20.93;63.57
50684;BME280;36654;45.042;38.994;2023-07-29T01:08:22;100738.13;;;20.89;63.71
50684;BME280;36654;45.042;38.994;2023-07-29T01:11:01;100745.47;;;20.84;64.20
50684;BME280;36654;45.042;38.994;2023-07-29T01:13:49;100749.28;;;20.77;64.42
50684;BME280;36654;45.042;38.994;2023-07-29T01:16:27;100734.09;;;20.75;64.28
50684;BME280;36654;45.042;38.994;2023-07-29T01:18:57;100724.47;;;20.66;64.72
50684;BME280;36654;45.042;38.994;2023-07-29T01:21:26;100752.22;;;20.70;64.79
50684;BME280;36654;45.042;38.994;2023-07-29T01:23:53;100736.19;;;20.65;64.83
50684;BME280;36654;45.042;38.994;2023-07-29T01:26:18;100754.94;;;20.68;64.65
50684;BME280;36654;45.042;38.994;2023-07-29T01:28:44;100760.31;;;20.68;64.80
50684;BME280;36654;45.042;38.994;2023-07-29T01:31:30;100757.59;;;20.70;64.43
50684;BME280;36654;45.042;38.994;2023-07-29T01:34:05;100745.91;;;20.69;64.49
50684;BME280;36654;45.042;38.994;2023-07-29T01:36:32;100753.34;;;20.61;64.58
50684;BME280;36654;45.042;38.994;2023-07-29T01:39:00;100755.03;;;20.65;64.44
50684;BME280;36654;45.042;38.994;2023-07-29T01:41:27;100734.59;;;20.58;64.81
50684;BME280;36654;45.042;38.994;2023-07-29T01:43:54;100756.03;;;20.62;64.66
50684;BME280;36654;45.042;38.994;2023-07-29T01:46:22;100758.66;;;20.64;64.74
50684;BME280;36654;45.042;38.994;2023-07-29T01:48:47;100744.31;;;20.63;64.59
50684;BME280;36654;45.042;38.994;2023-07-29T01:51:14;100744.38;;;20.62;64.76
50684;BME280;36654;45.042;38.994;2023-07-29T01:53:39;100753.25;;;20.64;64.75
50684;BME280;36654;45.042;38.994;2023-07-29T01:56:05;100753.56;;;20.55;64.66
50684;BME280;36654;45.042;38.994;2023-07-29T01:58:31;100761.34;;;20.64;64.47
50684;BME280;36654;45.042;38.994;2023-07-29T02:00:56;100751.75;;;20.54;64.81
50684;BME280;36654;45.042;38.994;2023-07-29T02:03:22;100750.72;;;20.59;64.92
50684;BME280;36654;45.042;38.994;2023-07-29T02:05:48;100730.50;;;20.44;65.07
50684;BME280;36654;45.042;38.994;2023-07-29T02:08:13;100756.16;;;20.58;65.10
50684;BME280;36654;45.042;38.994;2023-07-29T02:10:39;100740.03;;;20.56;65.05
50684;BME280;36654;45.042;38.994;2023-07-29T02:13:05;100761.53;;;20.58;64.98
50684;BME280;36654;45.042;38.994;2023-07-29T02:15:30;100744.44;;;20.59;64.81
50684;BME280;36654;45.042;38.994;2023-07-29T02:17:56;100758.75;;;20.61;64.78
50684;BME280;36654;45.042;38.994;2023-07-29T02:20:21;100764.03;;;20.64;64.88
50684;BME280;36654;45.042;38.994;2023-07-29T02:22:47;100707.28;;;20.40;64.46
50684;BME280;36654;45.042;38.994;2023-07-29T02:25:14;100763.88;;;20.70;64.47
50684;BME280;36654;45.042;38.994;2023-07-29T02:27:39;100762.44;;;20.86;64.08
50684;BME280;36654;45.042;38.994;2023-07-29T02:30:06;100765.06;;;20.89;63.60
50684;BME280;36654;45.042;38.994;2023-07-29T02:32:32;100754.09;;;20.96;63.19
50684;BME280;36654;45.042;38.994;2023-07-29T02:34:58;100749.41;;;21.02;63.19
50684;BME280;36654;45.042;38.994;2023-07-29T02:37:23;100757.38;;;21.05;62.95
50684;BME280;36654;45.042;38.994;2023-07-29T02:39:49;100704.31;;;20.79;62.85
50684;BME280;36654;45.042;38.994;2023-07-29T02:42:15;100733.13;;;21.05;62.64
50684;BME280;36654;45.042;38.994;2023-07-29T02:44:40;100748.31;;;21.08;62.71
50684;BME280;36654;45.042;38.994;2023-07-29T02:47:06;100713.16;;;20.84;62.88
50684;BME280;36654;45.042;38.994;2023-07-29T02:49:32;100750.38;;;21.00;63.20
50684;BME280;36654;45.042;38.994;2023-07-29T02:51:57;100753.69;;;21.08;63.02
50684;BME280;36654;45.042;38.994;2023-07-29T02:54:23;100757.91;;;21.17;62.79
50684;BME280;36654;45.042;38.994;2023-07-29T02:56:50;100719.41;;;21.66;61.54
50684;BME280;36654;45.042;38.994;2023-07-29T02:59:16;100754.47;;;22.43;59.25
50684;BME280;36654;45.042;38.994;2023-07-29T03:01:41;100759.91;;;22.16;59.44
50684;BME280;36654;45.042;38.994;2023-07-29T03:04:07;100769.50;;;22.27;59.34
50684;BME280;36654;45.042;38.994;2023-07-29T03:06:33;100763.53;;;23.11;57.26
50684;BME280;36654;45.042;38.994;2023-07-29T03:08:59;100760.59;;;24.04;54.76
50684;BME280;36654;45.042;38.994;2023-07-29T03:11:24;100760.22;;;24.71;52.38
50684;BME280;36654;45.042;38.994;2023-07-29T03:13:50;100754.56;;;25.33;50.32
50684;BME280;36654;45.042;38.994;2023-07-29T03:16:17;100760.34;;;25.61;48.90
50684;BME280;36654;45.042;38.994;2023-07-29T03:18:44;100777.16;;;25.87;48.81
50684;BME280;36654;45.042;38.994;2023-07-29T03:21:10;100780.50;;;26.27;47.47
50684;BME280;36654;45.042;38.994;2023-07-29T03:23:37;100763.84;;;26.33;46.99
50684;BME280;36654;45.042;38.994;2023-07-29T03:26:03;100777.09;;;26.57;46.33
50684;BME280;36654;45.042;38.994;2023-07-29T03:28:36;100739.88;;;26.41;46.19
50684;BME280;36654;45.042;38.994;2023-07-29T03:31:02;100782.72;;;26.54;46.00
50684;BME280;36654;45.042;38.994;2023-07-29T03:33:28;100775.41;;;25.86;47.27
50684;BME280;36654;45.042;38.994;2023-07-29T03:35:54;100779.72;;;25.17;49.12
50684;BME280;36654;45.042;38.994;2023-07-29T03:38:20;100793.41;;;24.77;50.68
50684;BME280;36654;45.042;38.994;2023-07-29T03:40:45;100765.28;;;24.79;50.88
50684;BME280;36654;45.042;38.994;2023-07-29T03:43:11;100785.38;;;25.32;49.86
50684;BME280;36654;45.042;38.994;2023-07-29T03:45:37;100782.72;;;25.67;49.02
50684;BME280;36654;45.042;38.994;2023-07-29T03:48:03;100784.50;;;25.85;47.90
50684;BME280;36654;45.042;38.994;2023-07-29T03:50:30;100778.78;;;25.91;47.71
50684;BME280;36654;45.042;38.994;2023-07-29T03:52:56;100775.66;;;26.16;47.50
50684;BME280;36654;45.042;38.994;2023-07-29T03:55:22;100780.16;;;26.33;47.10
50684;BME280;36654;45.042;38.994;2023-07-29T03:57:48;100781.09;;;26.50;46.80
50684;BME280;36654;45.042;38.994;2023-07-29T04:00:14;100782.13;;;26.64;46.27
50684;BME280;36654;45.042;38.994;2023-07-29T04:02:40;100783.16;;;26.62;46.10
50684;BME280;36654;45.042;38.994;2023-07-29T04:05:07;100787.81;;;26.60;46.31
50684;BME280;36654;45.042;38.994;2023-07-29T04:07:36;100779.34;;;26.49;46.40
50684;BME280;36654;45.042;38.994;2023-07-29T04:10:03;100792.19;;;26.62;46.14
50684;BME280;36654;45.042;38.994;2023-07-29T04:12:28;100795.00;;;26.61;46.27
50684;BME280;36654;45.042;38.994;2023-07-29T04:14:54;100787.81;;;26.60;46.11
50684;BME280;36654;45.042;38.994;2023-07-29T04:17:20;100782.31;;;26.61;46.23
50684;BME280;36654;45.042;38.994;2023-07-29T04:19:45;100796.94;;;26.59;46.33
50684;BME280;36654;45.042;38.994;2023-07-29T04:22:11;100795.66;;;26.66;46.49
50684;BME280;36654;45.042;38.994;2023-07-29T04:24:37;100794.50;;;26.70;45.89
50684;BME280;36654;45.042;38.994;2023-07-29T04:27:03;100799.25;;;26.82;46.15
50684;BME280;36654;45.042;38.994;2023-07-29T04:29:29;100797.59;;;26.96;45.79
50684;BME280;36654;45.042;38.994;2023-07-29T04:31:55;100811.22;;;27.11;46.25
50684;BME280;36654;45.042;38.994;2023-07-29T04:34:21;100809.94;;;26.85;46.40
50684;BME280;36654;45.042;38.994;2023-07-29T04:36:47;100804.88;;;26.79;45.89
50684;BME280;36654;45.042;38.994;2023-07-29T04:39:12;100819.66;;;27.07;45.38
50684;BME280;36654;45.042;38.994;2023-07-29T04:41:38;100808.25;;;27.48;44.43
50684;BME280;36654;45.042;38.994;2023-07-29T04:44:04;100804.28;;;27.69;43.72
50684;BME280;36654;45.042;38.994;2023-07-29T04:46:30;100818.72;;;28.02;42.91
50684;BME280;36654;45.042;38.994;2023-07-29T04:48:55;100789.28;;;28.08;42.37
50684;BME280;36654;45.042;38.994;2023-07-29T04:51:21;100822.09;;;28.35;41.96
50684;BME280;36654;45.042;38.994;2023-07-29T04:53:47;100822.59;;;28.42;41.51
50684;BME280;36654;45.042;38.994;2023-07-29T04:56:12;100826.41;;;28.39;41.61
50684;BME280;36654;45.042;38.994;2023-07-29T04:58:38;100814.50;;;28.40;41.77
50684;BME280;36654;45.042;38.994;2023-07-29T05:01:04;100800.94;;;28.55;43.85
50684;BME280;36654;45.042;38.994;2023-07-29T05:03:30;100817.03;;;28.88;42.57
50684;BME280;36654;45.042;38.994;2023-07-29T05:05:56;100817.78;;;29.19;41.32
50684;BME280;36654;45.042;38.994;2023-07-29T05:08:22;100811.50;;;29.45;39.68
50684;BME280;36654;45.042;38.994;2023-07-29T05:10:52;100825.50;;;29.68;38.68
50684;BME280;36654;45.042;38.994;2023-07-29T05:13:18;100815.69;;;29.78;36.99
50684;BME280;36654;45.042;38.994;2023-07-29T05:15:44;100803.63;;;29.68;36.70
50684;BME280;36654;45.042;38.994;2023-07-29T05:18:11;100819.03;;;29.69;36.95
50684;BME280;36654;45.042;38.994;2023-07-29T05:20:36;100821.91;;;29.80;36.72
50684;BME280;36654;45.042;38.994;2023-07-29T05:23:02;100808.81;;;29.85;37.02
50684;BME280;36654;45.042;38.994;2023-07-29T05:25:28;100815.69;;;29.78;36.09
50684;BME280;36654;45.042;38.994;2023-07-29T05:27:54;100809.09;;;29.27;38.57
50684;BME280;36654;45.042;38.994;2023-07-29T05:30:21;100818.75;;;28.89;38.78
50684;BME280;36654;45.042;38.994;2023-07-29T05:32:47;100819.16;;;28.83;38.68
50684;BME280;36654;45.042;38.994;2023-07-29T05:35:12;100825.00;;;28.91;38.58
50684;BME280;36654;45.042;38.994;2023-07-29T05:37:38;100824.88;;;28.93;37.18
50684;BME280;36654;45.042;38.994;2023-07-29T05:40:08;100815.25;;;29.01;36.77
50684;BME280;36654;45.042;38.994;2023-07-29T05:42:34;100817.22;;;29.14;36.07
50684;BME280;36654;45.042;38.994;2023-07-29T05:45:00;100805.72;;;29.09;35.34
50684;BME280;36654;45.042;38.994;2023-07-29T05:47:26;100815.63;;;29.24;35.24
50684;BME280;36654;45.042;38.994;2023-07-29T05:49:52;100804.72;;;29.24;35.08
50684;BME280;36654;45.042;38.994;2023-07-29T05:52:18;100791.34;;;29.19;35.18
50684;BME280;36654;45.042;38.994;2023-07-29T05:54:44;100829.19;;;29.53;34.89
50684;BME280;36654;45.042;38.994;2023-07-29T05:57:11;100802.81;;;29.39;34.90
50684;BME280;36654;45.042;38.994;2023-07-29T05:59:36;100826.00;;;29.46;35.36
50684;BME280;36654;45.042;38.994;2023-07-29T06:02:02;100797.34;;;29.39;35.19
50684;BME280;36654;45.042;38.994;2023-07-29T06:04:28;100845.19;;;29.59;35.51
50684;BME280;36654;45.042;38.994;2023-07-29T06:06:54;100842.44;;;29.73;35.01
50684;BME280;36654;45.042;38.994;2023-07-29T06:09:23;100822.91;;;29.65;34.54
50684;BME280;36654;45.042;38.994;2023-07-29T06:11:51;100798.31;;;29.65;34.40
50684;BME280;36654;45.042;38.994;2023-07-29T06:14:16;100842.56;;;29.84;34.12
50684;BME280;36654;45.042;38.994;2023-07-29T06:16:42;100838.38;;;29.66;33.27
50684;BME280;36654;45.042;38.994;2023-07-29T06:19:08;100849.53;;;29.34;33.45
50684;BME280;36654;45.042;38.994;2023-07-29T06:21:34;100829.50;;;29.07;33.72
50684;BME280;36654;45.042;38.994;2023-07-29T06:24:01;100835.72;;;28.94;34.15
50684;BME280;36654;45.042;38.994;2023-07-29T06:26:26;100836.69;;;28.79;35.05
50684;BME280;36654;45.042;38.994;2023-07-29T06:28:52;100834.28;;;28.44;35.42
50684;BME280;36654;45.042;38.994;2023-07-29T06:31:17;100825.25;;;27.99;36.44
50684;BME280;36654;45.042;38.994;2023-07-29T06:33:43;100830.53;;;27.70;37.02
50684;BME280;36654;45.042;38.994;2023-07-29T06:36:09;100826.69;;;27.43;37.71
50684;BME280;36654;45.042;38.994;2023-07-29T06:38:34;100823.66;;;27.16;38.10
50684;BME280;36654;45.042;38.994;2023-07-29T06:41:00;100842.91;;;27.13;38.42
50684;BME280;36654;45.042;38.994;2023-07-29T06:43:26;100794.66;;;26.67;37.33
50684;BME280;36654;45.042;38.994;2023-07-29T06:45:51;100842.31;;;26.74;37.71
50684;BME280;36654;45.042;38.994;2023-07-29T06:48:17;100801.97;;;26.49;37.70
50684;BME280;36654;45.042;38.994;2023-07-29T06:50:44;100805.22;;;26.38;37.36
50684;BME280;36654;45.042;38.994;2023-07-29T06:53:09;100839.84;;;26.52;37.90
50684;BME280;36654;45.042;38.994;2023-07-29T06:55:35;100852.97;;;26.44;38.82
50684;BME280;36654;45.042;38.994;2023-07-29T06:58:01;100850.31;;;26.42;37.87
50684;BME280;36654;45.042;38.994;2023-07-29T07:00:27;100841.38;;;26.40;37.61
50684;BME280;36654;45.042;38.994;2023-07-29T07:02:53;100862.41;;;26.37;36.56
50684;BME280;36654;45.042;38.994;2023-07-29T07:05:19;100810.84;;;26.18;35.52
50684;BME280;36654;45.042;38.994;2023-07-29T07:07:44;100795.84;;;26.11;35.14
50684;BME280;36654;45.042;38.994;2023-07-29T07:10:10;100849.53;;;26.40;35.45
50684;BME280;36654;45.042;38.994;2023-07-29T07:12:36;100851.63;;;26.53;34.66
50684;BME280;36654;45.042;38.994;2023-07-29T07:15:02;100831.47;;;26.57;35.46
50684;BME280;36654;45.042;38.994;2023-07-29T07:17:27;100811.66;;;26.37;36.15
50684;BME280;36654;45.042;38.994;2023-07-29T07:19:53;100833.31;;;26.56;36.29
50684;BME280;36654;45.042;38.994;2023-07-29T07:22:19;100846.19;;;26.53;36.82
50684;BME280;36654;45.042;38.994;2023-07-29T07:24:45;100841.13;;;26.62;37.18
50684;BME280;36654;45.042;38.994;2023-07-29T07:27:10;100836.47;;;26.82;36.26
50684;BME280;36654;45.042;38.994;2023-07-29T07:29:36;100824.53;;;27.00;36.12
50684;BME280;36654;45.042;38.994;2023-07-29T07:32:01;100790.84;;;26.87;35.90
50684;BME280;36654;45.042;38.994;2023-07-29T07:34:27;100845.16;;;27.22;35.73
50684;BME280;36654;45.042;38.994;2023-07-29T07:36:53;100842.16;;;27.26;35.21
50684;BME280;36654;45.042;38.994;2023-07-29T07:39:19;100824.78;;;27.29;35.98
50684;BME280;36654;45.042;38.994;2023-07-29T07:41:44;100821.44;;;27.40;36.61
50684;BME280;36654;45.042;38.994;2023-07-29T07:44:10;100829.03;;;27.17;36.28
50684;BME280;36654;45.042;38.994;2023-07-29T07:46:38;100839.69;;;27.22;35.17
50684;BME280;36654;45.042;38.994;2023-07-29T07:49:03;100843.47;;;27.19;35.04
50684;BME280;36654;45.042;38.994;2023-07-29T07:51:29;100837.06;;;27.20;35.17
50684;BME280;36654;45.042;38.994;2023-07-29T07:53:55;100849.47;;;27.26;35.47
50684;BME280;36654;45.042;38.994;2023-07-29T07:56:20;100821.44;;;27.24;35.45
50684;BME280;36654;45.042;38.994;2023-07-29T07:58:46;100821.94;;;27.30;34.37
50684;BME280;36654;45.042;38.994;2023-07-29T08:01:12;100811.25;;;27.27;35.18
50684;BME280;36654;45.042;38.994;2023-07-29T08:03:37;100817.13;;;27.36;35.01
50684;BME280;36654;45.042;38.994;2023-07-29T08:06:04;100804.38;;;27.52;34.21
50684;BME280;36654;45.042;38.994;2023-07-29T08:08:30;100783.75;;;27.48;33.52
50684;BME280;36654;45.042;38.994;2023-07-29T08:10:56;100814.03;;;27.73;33.81
50684;BME280;36654;45.042;38.994;2023-07-29T08:13:23;100786.88;;;27.72;33.67
50684;BME280;36654;45.042;38.994;2023-07-29T08:15:51;100801.13;;;28.07;33.59
50684;BME280;36654;45.042;38.994;2023-07-29T08:18:17;100807.34;;;28.09;33.06
50684;BME280;36654;45.042;38.994;2023-07-29T08:20:57;100794.88;;;28.05;32.81
50684;BME280;36654;45.042;38.994;2023-07-29T08:23:35;100803.66;;;28.10;32.00
50684;BME280;36654;45.042;38.994;2023-07-29T08:26:03;100796.66;;;28.06;32.10
50684;BME280;36654;45.042;38.994;2023-07-29T08:28:38;100803.25;;;28.02;32.43
50684;BME280;36654;45.042;38.994;2023-07-29T08:31:05;100796.75;;;28.05;32.53
50684;BME280;36654;45.042;38.994;2023-07-29T08:33:32;100779.13;;;28.10;32.57
50684;BME280;36654;45.042;38.994;2023-07-29T08:36:02;100789.09;;;28.26;32.22
50684;BME280;36654;45.042;38.994;2023-07-29T08:38:28;100800.88;;;28.40;32.54
50684;BME280;36654;45.042;38.994;2023-07-29T08:41:24;100794.03;;;28.49;32.38
50684;BME280;36654;45.042;38.994;2023-07-29T08:43:52;100791.50;;;28.46;32.61
50684;BME280;36654;45.042;38.994;2023-07-29T08:46:19;100802.34;;;28.32;32.96
50684;BME280;36654;45.042;38.994;2023-07-29T08:48:46;100792.44;;;28.31;32.83
50684;BME280;36654;45.042;38.994;2023-07-29T08:51:12;100804.31;;;28.44;32.19
50684;BME280;36654;45.042;38.994;2023-07-29T08:53:39;100772.88;;;28.38;32.33
50684;BME280;36654;45.042;38.994;2023-07-29T08:56:06;100797.53;;;28.66;32.00
50684;BME280;36654;45.042;38.994;2023-07-29T08:58:32;100790.31;;;28.79;31.93
50684;BME280;36654;45.042;38.994;2023-07-29T09:00:58;100770.81;;;28.85;32.04
50684;BME280;36654;45.042;38.994;2023-07-29T09:03:24;100787.56;;;29.08;31.84
50684;BME280;36654;45.042;38.994;2023-07-29T09:05:50;100786.97;;;29.02;31.81
50684;BME280;36654;45.042;38.994;2023-07-29T09:08:16;100790.13;;;28.96;30.83
50684;BME280;36654;45.042;38.994;2023-07-29T09:10:42;100775.53;;;28.83;30.79
50684;BME280;36654;45.042;38.994;2023-07-29T09:13:08;100797.50;;;28.94;31.00
50684;BME280;36654;45.042;38.994;2023-07-29T09:15:36;100788.91;;;29.00;30.95
50684;BME280;36654;45.042;38.994;2023-07-29T09:18:12;100737.22;;;28.85;31.04
50684;BME280;36654;45.042;38.994;2023-07-29T09:20:40;100751.34;;;28.91;31.73
50684;BME280;36654;45.042;38.994;2023-07-29T09:23:08;100742.19;;;28.78;31.94
50684;BME280;36654;45.042;38.994;2023-07-29T09:25:36;100775.03;;;28.91;32.20
50684;BME280;36654;45.042;38.994;2023-07-29T09:28:11;100732.63;;;28.85;32.40
50684;BME280;36654;45.042;38.994;2023-07-29T09:30:38;100757.94;;;29.16;30.69
50684;BME280;36654;45.042;38.994;2023-07-29T09:33:04;100768.22;;;29.25;30.99
50684;BME280;36654;45.042;38.994;2023-07-29T09:35:32;100763.91;;;29.35;31.06
50684;BME280;36654;45.042;38.994;2023-07-29T09:37:58;100761.75;;;29.40;31.39
50684;BME280;36654;45.042;38.994;2023-07-29T09:40:24;100753.41;;;29.29;31.47
50684;BME280;36654;45.042;38.994;2023-07-29T09:42:54;100703.66;;;29.11;31.38
50684;BME280;36654;45.042;38.994;2023-07-29T09:47:47;100760.22;;;29.36;30.81
50684;BME280;36654;45.042;38.994;2023-07-29T09:50:12;100755.16;;;29.30;30.90
50684;BME280;36654;45.042;38.994;2023-07-29T09:52:38;100758.88;;;29.29;30.78
50684;BME280;36654;45.042;38.994;2023-07-29T09:55:04;100756.38;;;29.12;29.69
50684;BME280;36654;45.042;38.994;2023-07-29T09:57:31;100756.28;;;28.99;30.43
50684;BME280;36654;45.042;38.994;2023-07-29T09:59:58;100750.56;;;28.89;30.89
50684;BME280;36654;45.042;38.994;2023-07-29T10:02:23;100753.84;;;28.94;30.93
50684;BME280;36654;45.042;38.994;2023-07-29T10:04:52;100747.81;;;29.03;30.52
50684;BME280;36654;45.042;38.994;2023-07-29T10:07:18;100748.63;;;29.06;30.26
50684;BME280;36654;45.042;38.994;2023-07-29T10:09:45;100749.53;;;29.04;30.08
50684;BME280;36654;45.042;38.994;2023-07-29T10:12:11;100749.53;;;29.04;30.47
50684;BME280;36654;45.042;38.994;2023-07-29T10:14:38;100743.91;;;29.08;30.65
50684;BME280;36654;45.042;38.994;2023-07-29T10:17:05;100702.03;;;28.80;31.05
50684;BME280;36654;45.042;38.994;2023-07-29T10:19:31;100736.91;;;29.03;31.03
50684;BME280;36654;45.042;38.994;2023-07-29T10:21:59;100745.47;;;29.12;30.94
50684;BME280;36654;45.042;38.994;2023-07-29T10:24:32;100731.03;;;29.10;30.80
50684;BME280;36654;45.042;38.994;2023-07-29T10:27:01;100739.22;;;28.95;30.83
50684;BME280;36654;45.042;38.994;2023-07-29T10:29:38;100748.72;;;28.75;30.67
50684;BME280;36654;45.042;38.994;2023-07-29T10:32:04;100746.31;;;28.71;30.63
50684;BME280;36654;45.042;38.994;2023-07-29T10:34:32;100731.31;;;28.64;30.97
50684;BME280;36654;45.042;38.994;2023-07-29T10:37:01;100742.59;;;28.72;30.82
50684;BME280;36654;45.042;38.994;2023-07-29T10:39:26;100740.44;;;28.77;30.57
50684;BME280;36654;45.042;38.994;2023-07-29T10:42:02;100729.31;;;28.80;31.00
50684;BME280;36654;45.042;38.994;2023-07-29T10:47:15;100726.41;;;28.83;30.96
50684;BME280;36654;45.042;38.994;2023-07-29T10:49:44;100701.59;;;28.73;30.58
50684;BME280;36654;45.042;38.994;2023-07-29T10:52:15;100732.41;;;29.02;31.14
50684;BME280;36654;45.042;38.994;2023-07-29T10:54:47;100730.53;;;29.03;31.41
50684;BME280;36654;45.042;38.994;2023-07-29T10:57:35;100729.31;;;29.09;31.14
50684;BME280;36654;45.042;38.994;2023-07-29T10:59:59;100718.75;;;29.02;30.98
50684;BME280;36654;45.042;38.994;2023-07-29T11:02:57;100717.00;;;29.01;30.80
50684;BME280;36654;45.042;38.994;2023-07-29T11:05:25;100702.81;;;28.96;30.67
50684;BME280;36654;45.042;38.994;2023-07-29T11:07:50;100716.81;;;29.04;30.63
50684;BME280;36654;45.042;38.994;2023-07-29T11:10:16;100708.03;;;28.99;30.99
50684;BME280;36654;45.042;38.994;2023-07-29T11:12:48;100710.09;;;29.10;30.21
50684;BME280;36654;45.042;38.994;2023-07-29T11:15:25;100722.09;;;29.08;30.42
50684;BME280;36654;45.042;38.994;2023-07-29T11:17:59;100714.00;;;29.06;30.67
50684;BME280;36654;45.042;38.994;2023-07-29T11:20:33;100722.66;;;29.13;30.82
50684;BME280;36654;45.042;38.994;2023-07-29T11:23:00;100717.56;;;29.21;30.34
50684;BME280;36654;45.042;38.994;2023-07-29T11:25:27;100689.16;;;29.11;30.07
50684;BME280;36654;45.042;38.994;2023-07-29T11:27:55;100707.22;;;27.99;37.70
50684;BME280;36654;45.042;38.994;2023-07-29T11:30:21;100694.53;;;26.91;38.65
50684;BME280;36654;45.042;38.994;2023-07-29T11:32:55;100697.31;;;26.58;39.50
50684;BME280;36654;45.042;38.994;2023-07-29T11:35:21;100710.31;;;26.68;38.45
50684;BME280;36654;45.042;38.994;2023-07-29T11:37:49;100706.78;;;26.82;41.38
50684;BME280;36654;45.042;38.994;2023-07-29T11:40:20;100687.66;;;27.00;38.96
50684;BME280;36654;45.042;38.994;2023-07-29T11:42:47;100720.56;;;27.27;39.53
50684;BME280;36654;45.042;38.994;2023-07-29T11:45:14;100670.63;;;27.12;39.71
50684;BME280;36654;45.042;38.994;2023-07-29T11:47:40;100710.69;;;27.56;38.31
50684;BME280;36654;45.042;38.994;2023-07-29T11:50:08;100715.59;;;27.80;34.67
50684;BME280;36654;45.042;38.994;2023-07-29T11:52:44;100706.13;;;27.87;33.23
50684;BME280;36654;45.042;38.994;2023-07-29T11:55:10;100667.00;;;27.88;32.24
50684;BME280;36654;45.042;38.994;2023-07-29T11:57:39;100702.97;;;28.23;31.86
50684;BME280;36654;45.042;38.994;2023-07-29T12:00:07;100691.94;;;28.39;31.56
50684;BME280;36654;45.042;38.994;2023-07-29T12:02:37;100663.75;;;28.26;31.13
50684;BME280;36654;45.042;38.994;2023-07-29T12:05:03;100698.38;;;28.52;30.89
50684;BME280;36654;45.042;38.994;2023-07-29T12:07:29;100696.94;;;28.61;31.17
50684;BME280;36654;45.042;38.994;2023-07-29T12:09:55;100684.94;;;28.64;31.37
50684;BME280;36654;45.042;38.994;2023-07-29T12:12:22;100705.56;;;28.82;31.05
50684;BME280;36654;45.042;38.994;2023-07-29T12:14:48;100663.72;;;28.69;30.47
50684;BME280;36654;45.042;38.994;2023-07-29T12:17:14;100697.16;;;28.85;30.53
50684;BME280;36654;45.042;38.994;2023-07-29T12:19:41;100685.69;;;28.80;29.97
50684;BME280;36654;45.042;38.994;2023-07-29T12:22:08;100706.03;;;28.89;29.44
50684;BME280;36654;45.042;38.994;2023-07-29T12:24:39;100711.59;;;28.87;29.39
50684;BME280;36654;45.042;38.994;2023-07-29T12:27:05;100700.78;;;28.86;30.19
50684;BME280;36654;45.042;38.994;2023-07-29T12:29:40;100693.28;;;28.75;30.26
50684;BME280;36654;45.042;38.994;2023-07-29T12:32:06;100712.00;;;28.81;30.34
50684;BME280;36654;45.042;38.994;2023-07-29T12:34:32;100709.28;;;28.81;30.13
50684;BME280;36654;45.042;38.994;2023-07-29T12:36:59;100707.13;;;28.86;31.10
50684;BME280;36654;45.042;38.994;2023-07-29T12:39:29;100711.28;;;28.92;30.81
50684;BME280;36654;45.042;38.994;2023-07-29T12:41:57;100715.88;;;28.91;30.34
50684;BME280;36654;45.042;38.994;2023-07-29T12:44:24;100710.41;;;28.91;30.65
50684;BME280;36654;45.042;38.994;2023-07-29T12:46:50;100667.31;;;28.69;30.86